createdAt,value
2018-09-28T00:00:21.194Z,89.36
2018-09-28T00:01:21.192Z,89.17
2018-09-28T00:02:21.187Z,88.79
2018-09-28T00:03:21.183Z,88.41
2018-09-28T00:04:21.180Z,88.31
2018-09-28T00:05:21.177Z,88.31
2018-09-28T00:06:21.172Z,88.03
2018-09-28T00:07:21.168Z,87.55
2018-09-28T00:08:21.164Z,87.55
2018-09-28T00:09:21.160Z,87.27
2018-09-28T00:10:21.156Z,87.46
2018-09-28T00:11:21.155Z,86.12
2018-09-28T00:12:21.150Z,85.36
2018-09-28T00:13:21.146Z,85.27
2018-09-28T00:14:21.140Z,85.36
2018-09-28T00:15:21.138Z,86.03
2018-09-28T00:16:21.133Z,85.84
2018-09-28T00:17:21.131Z,85.55
2018-09-28T00:18:21.125Z,84.98
2018-09-28T00:19:21.122Z,85.36
2018-09-28T00:20:21.119Z,84.22
2018-09-28T00:21:21.114Z,84.98
2018-09-28T00:22:21.110Z,84.98
2018-09-28T00:23:21.106Z,85.31
2018-09-28T00:24:21.104Z,85.50
2018-09-28T00:25:21.099Z,85.78
2018-09-28T00:26:21.095Z,86.07
2018-09-28T00:27:21.091Z,86.78
2018-09-28T00:28:21.087Z,87.35
2018-09-28T00:29:21.084Z,88.50
2018-09-28T00:30:21.083Z,87.93
2018-09-28T00:31:21.074Z,87.83
2018-09-28T00:32:21.072Z,87.16
2018-09-28T00:33:21.067Z,86.98
2018-09-28T00:34:21.063Z,88.54
2018-09-28T00:35:21.058Z,88.21
2018-09-28T00:36:21.055Z,87.59
2018-09-28T00:37:21.052Z,87.87
2018-09-28T00:38:21.047Z,88.16
2018-09-28T00:39:21.046Z,88.16
2018-09-28T00:40:21.039Z,88.16
2018-09-28T00:41:21.037Z,88.26
2018-09-28T00:42:21.033Z,88.45
2018-09-28T00:43:21.029Z,88.31
2018-09-28T00:44:21.026Z,87.83
2018-09-28T00:45:21.022Z,88.50
2018-09-28T00:46:21.015Z,87.54
2018-09-28T00:47:21.012Z,87.83
2018-09-28T00:48:21.009Z,87.45
2018-09-28T00:49:21.004Z,88.26
2018-09-28T00:50:21.000Z,88.16
2018-09-28T00:51:20.996Z,88.26
2018-09-28T00:52:20.992Z,88.12
2018-09-28T00:53:20.991Z,88.12
2018-09-28T00:54:20.985Z,87.83
2018-09-28T00:55:20.980Z,87.64
2018-09-28T00:56:20.977Z,86.98
2018-09-28T00:57:20.974Z,87.45
2018-09-28T00:58:20.968Z,86.59
2018-09-28T00:59:20.965Z,87.07
2018-09-28T01:00:20.961Z,87.54
2018-09-28T01:01:20.958Z,87.83
2018-09-28T01:02:20.954Z,86.11
2018-09-28T01:03:20.950Z,86.98
2018-09-28T01:04:20.946Z,87.35
2018-09-28T01:05:20.942Z,87.07
2018-09-28T01:06:20.938Z,86.30
2018-09-28T01:07:20.936Z,86.59
2018-09-28T01:08:20.931Z,87.45
2018-09-28T01:09:20.927Z,87.16
2018-09-28T01:10:20.923Z,86.59
2018-09-28T01:11:20.920Z,87.35
2018-09-28T01:12:20.916Z,86.88
2018-09-28T01:13:20.913Z,86.98
2018-09-28T01:14:20.908Z,86.30
2018-09-28T01:15:20.902Z,86.93
2018-09-28T01:16:20.900Z,86.36
2018-09-28T01:17:20.898Z,85.78
2018-09-28T01:18:20.893Z,85.50
2018-09-28T01:19:20.889Z,85.41
2018-09-28T01:20:20.885Z,85.02
2018-09-28T01:21:20.881Z,84.98
2018-09-28T01:22:20.879Z,84.22
2018-09-28T01:23:20.872Z,83.84
2018-09-28T01:24:20.868Z,83.17
2018-09-28T01:25:20.867Z,84.50
2018-09-28T01:26:20.860Z,84.55
2018-09-28T01:27:20.859Z,83.59
2018-09-28T01:28:20.853Z,83.84
2018-09-28T01:29:20.853Z,84.03
2018-09-28T01:30:20.845Z,84.60
2018-09-28T01:31:20.841Z,83.84
2018-09-28T01:32:20.846Z,83.36
2018-09-28T01:33:20.833Z,83.74
2018-09-28T01:34:20.829Z,83.26
2018-09-28T01:35:20.827Z,82.89
2018-09-28T01:36:20.822Z,82.12
2018-09-28T01:37:20.819Z,82.12
2018-09-28T01:38:20.813Z,82.31
2018-09-28T01:39:20.810Z,81.65
2018-09-28T01:40:20.807Z,81.46
2018-09-28T01:41:20.803Z,80.98
2018-09-28T01:42:20.799Z,80.41
2018-09-28T01:43:20.795Z,79.83
2018-09-28T01:44:20.791Z,80.41
2018-09-28T01:45:20.787Z,79.60
2018-09-28T01:46:20.782Z,79.89
2018-09-28T01:47:20.778Z,80.08
2018-09-28T01:48:20.774Z,79.51
2018-09-28T01:49:20.771Z,79.03
2018-09-28T01:50:20.765Z,79.03
2018-09-28T01:51:20.763Z,78.85
2018-09-28T01:52:20.758Z,78.41
2018-09-28T01:53:20.755Z,78.37
2018-09-28T01:54:20.749Z,78.17
2018-09-28T01:55:20.749Z,77.42
2018-09-28T01:56:20.742Z,77.36
2018-09-28T01:57:20.737Z,76.79
2018-09-28T01:58:20.733Z,77.26
2018-09-28T01:59:20.729Z,77.55
2018-09-28T02:00:20.726Z,77.64
2018-09-28T02:01:20.728Z,77.74
2018-09-28T02:02:20.718Z,77.64
2018-09-28T02:03:20.714Z,77.64
2018-09-28T02:04:20.710Z,77.55
2018-09-28T02:05:20.707Z,77.74
2018-09-28T02:06:20.700Z,77.83
2018-09-28T02:07:20.697Z,77.45
2018-09-28T02:08:20.695Z,77.45
2018-09-28T02:09:20.690Z,76.88
2018-09-28T02:10:20.685Z,77.64
2018-09-28T02:11:20.680Z,77.83
2018-09-28T02:12:20.684Z,77.26
2018-09-28T02:13:20.676Z,76.40
2018-09-28T02:14:20.670Z,76.79
2018-09-28T02:15:20.667Z,77.45
2018-09-28T02:16:20.662Z,77.17
2018-09-28T02:17:20.659Z,77.01
2018-09-28T02:18:20.654Z,76.92
2018-09-28T02:19:20.650Z,77.30
2018-09-28T02:20:20.646Z,76.73
2018-09-28T02:21:20.644Z,76.64
2018-09-28T02:22:20.638Z,76.64
2018-09-28T02:23:20.634Z,77.11
2018-09-28T02:24:20.631Z,76.92
2018-09-28T02:25:20.629Z,76.82
2018-09-28T02:26:20.625Z,76.73
2018-09-28T02:27:20.626Z,76.35
2018-09-28T02:28:20.616Z,76.25
2018-09-28T02:29:20.613Z,76.35
2018-09-28T02:30:20.608Z,75.59
2018-09-28T02:31:20.605Z,75.20
2018-09-28T02:32:20.602Z,74.73
2018-09-28T02:33:20.599Z,75.24
2018-09-28T02:34:20.594Z,75.05
2018-09-28T02:35:20.590Z,74.96
2018-09-28T02:36:20.588Z,74.96
2018-09-28T02:37:20.583Z,75.43
2018-09-28T02:38:20.579Z,74.96
2018-09-28T02:39:20.577Z,75.05
2018-09-28T02:40:20.573Z,74.57
2018-09-28T02:41:20.573Z,74.35
2018-09-28T02:42:20.567Z,74.54
2018-09-28T02:43:20.563Z,74.35
2018-09-28T02:44:20.558Z,73.62
2018-09-28T02:45:20.553Z,73.91
2018-09-28T02:46:20.550Z,73.91
2018-09-28T02:47:20.549Z,73.91
2018-09-28T02:48:20.543Z,73.62
2018-09-28T02:49:20.539Z,73.81
2018-09-28T02:50:20.535Z,73.43
2018-09-28T02:51:20.532Z,72.38
2018-09-28T02:52:20.529Z,70.67
2018-09-28T02:53:20.526Z,70.67
2018-09-28T02:54:20.521Z,71.23
2018-09-28T02:55:20.517Z,70.95
2018-09-28T02:56:20.514Z,71.62
2018-09-28T02:57:20.511Z,71.62
2018-09-28T02:58:20.508Z,71.66
2018-09-28T02:59:20.503Z,72.13
2018-09-28T03:00:20.500Z,71.84
2018-09-28T03:01:20.496Z,72.42
2018-09-28T03:02:20.492Z,72.32
2018-09-28T03:03:20.489Z,72.13
2018-09-28T03:04:20.485Z,73.28
2018-09-28T03:05:20.488Z,72.03
2018-09-28T03:06:20.529Z,71.84
2018-09-28T03:07:20.476Z,72.13
2018-09-28T03:08:20.473Z,72.42
2018-09-28T03:09:20.469Z,72.51
2018-09-28T03:10:20.464Z,72.32
2018-09-28T03:11:20.464Z,71.84
2018-09-28T03:12:20.458Z,72.03
2018-09-28T03:13:20.455Z,72.80
2018-09-28T03:14:20.451Z,72.89
2018-09-28T03:15:20.448Z,72.89
2018-09-28T03:16:20.446Z,73.18
2018-09-28T03:17:20.441Z,73.56
2018-09-28T03:18:20.436Z,73.56
2018-09-28T03:19:20.435Z,73.47
2018-09-28T03:20:20.432Z,72.80
2018-09-28T03:21:20.430Z,73.03
2018-09-28T03:22:20.423Z,73.18
2018-09-28T03:23:20.419Z,73.66
2018-09-28T03:24:20.417Z,72.80
2018-09-28T03:25:20.416Z,72.80
2018-09-28T03:26:20.410Z,72.99
2018-09-28T03:27:20.407Z,73.47
2018-09-28T03:28:20.404Z,73.47
2018-09-28T03:29:20.401Z,73.28
2018-09-28T03:30:20.396Z,74.13
2018-09-28T03:31:20.394Z,73.18
2018-09-28T03:32:20.396Z,72.32
2018-09-28T03:33:20.388Z,73.18
2018-09-28T03:34:20.385Z,72.71
2018-09-28T03:35:20.380Z,73.08
2018-09-28T03:36:20.379Z,72.80
2018-09-28T03:37:20.374Z,72.61
2018-09-28T03:38:20.370Z,72.99
2018-09-28T03:39:20.371Z,72.32
2018-09-28T03:40:20.369Z,72.51
2018-09-28T03:41:20.363Z,72.99
2018-09-28T03:42:20.375Z,73.47
2018-09-28T03:43:20.353Z,72.03
2018-09-28T03:44:20.350Z,71.75
2018-09-28T03:45:20.351Z,71.94
2018-09-28T03:46:20.343Z,71.46
2018-09-28T03:47:20.339Z,71.94
2018-09-28T03:48:20.338Z,71.56
2018-09-28T03:49:20.339Z,71.27
2018-09-28T03:50:20.329Z,71.18
2018-09-28T03:51:20.331Z,70.79
2018-09-28T03:52:20.325Z,70.42
2018-09-28T03:53:20.320Z,69.84
2018-09-28T03:54:20.316Z,70.03
2018-09-28T03:55:20.320Z,70.13
2018-09-28T03:56:20.310Z,69.74
2018-09-28T03:57:20.307Z,70.51
2018-09-28T03:58:20.303Z,69.46
2018-09-28T03:59:20.300Z,69.65
2018-09-28T04:00:20.298Z,69.27
2018-09-28T04:01:20.294Z,68.98
2018-09-28T04:02:20.289Z,68.60
2018-09-28T04:03:20.290Z,68.60
2018-09-28T04:04:20.284Z,68.79
2018-09-28T04:05:20.281Z,69.17
2018-09-28T04:06:20.277Z,68.70
2018-09-28T04:07:20.273Z,68.88
2018-09-28T04:08:20.270Z,69.56
2018-09-28T04:09:20.269Z,69.17
2018-09-28T04:10:20.263Z,68.51
2018-09-28T04:11:20.260Z,68.60
2018-09-28T04:12:20.260Z,67.17
2018-09-28T04:13:20.254Z,66.88
2018-09-28T04:14:20.251Z,66.88
2018-09-28T04:15:20.251Z,66.31
2018-09-28T04:16:20.245Z,66.12
2018-09-28T04:17:20.241Z,65.77
2018-09-28T04:18:20.240Z,65.74
2018-09-28T04:19:20.233Z,65.55
2018-09-28T04:20:20.231Z,66.12
2018-09-28T04:21:20.228Z,64.97
2018-09-28T04:22:20.223Z,65.55
2018-09-28T04:23:20.221Z,65.55
2018-09-28T04:24:20.217Z,65.55
2018-09-28T04:25:20.215Z,64.69
2018-09-28T04:26:20.210Z,64.72
2018-09-28T04:27:20.207Z,64.25
2018-09-28T04:28:20.202Z,63.54
2018-09-28T04:29:20.203Z,64.81
2018-09-28T04:30:20.201Z,64.43
2018-09-28T04:31:20.195Z,63.96
2018-09-28T04:32:20.192Z,63.00
2018-09-28T04:33:20.187Z,63.26
2018-09-28T04:34:20.185Z,63.00
2018-09-28T04:35:20.183Z,62.62
2018-09-28T04:36:20.179Z,62.43
2018-09-28T04:37:20.174Z,62.81
2018-09-28T04:38:20.171Z,62.71
2018-09-28T04:39:20.168Z,62.34
2018-09-28T04:40:20.166Z,61.47
2018-09-28T04:41:20.161Z,61.66
2018-09-28T04:42:20.162Z,61.57
2018-09-28T04:43:20.154Z,61.00
2018-09-28T04:44:20.154Z,61.29
2018-09-28T04:45:20.221Z,60.81
2018-09-28T04:46:20.143Z,60.71
2018-09-28T04:47:20.141Z,61.00
2018-09-28T04:48:20.138Z,60.52
2018-09-28T04:49:20.138Z,59.56
2018-09-28T04:50:20.132Z,59.56
2018-09-28T04:51:20.129Z,59.28
2018-09-28T04:52:20.125Z,59.76
2018-09-28T04:53:20.122Z,59.38
2018-09-28T04:54:20.120Z,59.56
2018-09-28T04:55:20.116Z,58.90
2018-09-28T04:56:20.113Z,59.19
2018-09-28T04:57:20.109Z,57.75
2018-09-28T04:58:20.107Z,57.75
2018-09-28T04:59:20.103Z,57.65
2018-09-28T05:00:20.099Z,57.56
2018-09-28T05:01:20.097Z,56.99
2018-09-28T05:02:20.092Z,56.99
2018-09-28T05:03:20.091Z,56.32
2018-09-28T05:04:20.088Z,56.89
2018-09-28T05:05:20.084Z,56.89
2018-09-28T05:06:20.079Z,55.84
2018-09-28T05:07:20.077Z,55.08
2018-09-28T05:08:20.074Z,55.36
2018-09-28T05:09:20.073Z,54.70
2018-09-28T05:10:20.067Z,55.18
2018-09-28T05:11:20.064Z,54.13
2018-09-28T05:12:20.061Z,54.22
2018-09-28T05:13:20.059Z,54.13
2018-09-28T05:14:20.059Z,53.65
2018-09-28T05:15:20.053Z,53.27
2018-09-28T05:16:20.049Z,53.36
2018-09-28T05:17:20.046Z,53.08
2018-09-28T05:18:20.043Z,53.08
2018-09-28T05:19:20.092Z,52.79
2018-09-28T05:20:20.036Z,52.69
2018-09-28T05:21:20.034Z,52.15
2018-09-28T05:22:20.029Z,52.31
2018-09-28T05:23:20.026Z,52.40
2018-09-28T05:24:20.024Z,52.05
2018-09-28T05:25:20.049Z,52.15
2018-09-28T05:26:20.016Z,51.86
2018-09-28T05:27:20.013Z,51.67
2018-09-28T05:28:20.010Z,51.09
2018-09-28T05:29:20.014Z,51.57
2018-09-28T05:30:20.004Z,50.90
2018-09-28T05:31:20.085Z,51.67
2018-09-28T05:32:20.139Z,51.76
2018-09-28T05:33:19.996Z,51.76
2018-09-28T05:34:19.990Z,51.09
2018-09-28T05:35:19.988Z,51.00
2018-09-28T05:36:19.989Z,50.43
2018-09-28T05:37:20.018Z,51.00
2018-09-28T05:38:19.984Z,50.62
2018-09-28T05:39:20.025Z,50.81
2018-09-28T05:40:19.973Z,51.00
2018-09-28T05:41:19.970Z,50.90
2018-09-28T05:42:19.966Z,50.90
2018-09-28T05:43:19.963Z,50.90
2018-09-28T05:44:19.963Z,50.81
2018-09-28T05:45:19.956Z,50.33
2018-09-28T05:46:19.973Z,50.52
2018-09-28T05:47:19.950Z,50.62
2018-09-28T05:48:19.947Z,50.26
2018-09-28T05:49:19.944Z,50.45
2018-09-28T05:50:19.941Z,50.26
2018-09-28T05:51:19.990Z,50.24
2018-09-28T05:52:19.936Z,50.04
2018-09-28T05:53:19.934Z,50.04
2018-09-28T05:54:19.930Z,50.26
2018-09-28T05:55:19.925Z,50.55
2018-09-28T05:56:19.923Z,50.35
2018-09-28T05:57:19.921Z,50.35
2018-09-28T05:58:19.917Z,50.74
2018-09-28T05:59:19.914Z,50.74
2018-09-28T06:00:19.913Z,50.64
2018-09-28T06:01:19.909Z,50.93
2018-09-28T06:02:19.906Z,51.03
2018-09-28T06:03:19.902Z,50.93
2018-09-28T06:04:19.899Z,51.41
2018-09-28T06:05:19.915Z,51.21
2018-09-28T06:06:19.893Z,52.17
2018-09-28T06:07:19.890Z,51.89
2018-09-28T06:08:19.887Z,52.36
2018-09-28T06:09:19.884Z,51.98
2018-09-28T06:10:19.882Z,52.17
2018-09-28T06:11:19.880Z,52.24
2018-09-28T06:12:19.875Z,52.43
2018-09-28T06:13:19.872Z,52.55
2018-09-28T06:14:19.869Z,52.46
2018-09-28T06:15:19.867Z,52.53
2018-09-28T06:16:19.863Z,52.43
2018-09-28T06:17:19.860Z,52.81
2018-09-28T06:18:19.872Z,52.24
2018-09-28T06:19:19.858Z,51.67
2018-09-28T06:20:19.852Z,51.76
2018-09-28T06:21:19.849Z,51.19
2018-09-28T06:22:19.846Z,51.00
2018-09-28T06:23:19.842Z,50.81
2018-09-28T06:24:19.925Z,51.48
2018-09-28T06:25:19.837Z,51.09
2018-09-28T06:26:19.832Z,51.09
2018-09-28T06:27:19.830Z,51.00
2018-09-28T06:28:19.829Z,50.90
2018-09-28T06:29:19.825Z,50.52
2018-09-28T06:30:19.925Z,50.62
2018-09-28T06:31:19.818Z,50.62
2018-09-28T06:32:19.815Z,50.71
2018-09-28T06:33:19.815Z,50.71
2018-09-28T06:34:19.808Z,50.62
2018-09-28T06:35:19.804Z,50.62
2018-09-28T06:36:19.870Z,50.71
2018-09-28T06:37:19.799Z,50.62
2018-09-28T06:38:19.796Z,50.62
2018-09-28T06:39:19.793Z,50.62
2018-09-28T06:40:19.792Z,50.90
2018-09-28T06:41:19.786Z,51.29
2018-09-28T06:42:19.831Z,50.71
2018-09-28T06:43:19.781Z,50.81
2018-09-28T06:44:19.777Z,50.62
2018-09-28T06:45:19.775Z,50.81
2018-09-28T06:46:19.772Z,50.71
2018-09-28T06:47:19.770Z,50.52
2018-09-28T06:48:19.825Z,50.52
2018-09-28T06:49:19.764Z,50.43
2018-09-28T06:50:19.760Z,50.43
2018-09-28T06:51:19.819Z,50.43
2018-09-28T06:52:19.754Z,50.33
2018-09-28T06:53:19.752Z,50.43
2018-09-28T06:54:19.764Z,49.83
2018-09-28T06:55:19.746Z,49.76
2018-09-28T06:56:19.742Z,48.80
2018-09-28T06:57:19.739Z,49.16
2018-09-28T06:58:19.764Z,48.80
2018-09-28T06:59:19.730Z,48.68
2018-09-28T07:00:19.804Z,49.35
2018-09-28T07:01:19.726Z,49.54
2018-09-28T07:02:19.723Z,49.26
2018-09-28T07:03:19.727Z,49.16
2018-09-28T07:04:19.716Z,48.88
2018-09-28T07:05:19.714Z,49.07
2018-09-28T07:06:19.776Z,49.83
2018-09-28T07:07:19.708Z,50.02
2018-09-28T07:08:19.704Z,50.02
2018-09-28T07:09:19.719Z,49.64
2018-09-28T07:10:19.699Z,50.21
2018-09-28T07:11:19.695Z,50.02
2018-09-28T07:12:19.719Z,50.12
2018-09-28T07:13:19.689Z,50.21
2018-09-28T07:14:19.697Z,51.45
2018-09-28T07:15:19.683Z,51.54
2018-09-28T07:16:19.705Z,51.26
2018-09-28T07:17:19.678Z,51.64
2018-09-28T07:18:19.708Z,51.26
2018-09-28T07:19:19.670Z,51.64
2018-09-28T07:20:19.669Z,51.74
2018-09-28T07:21:19.665Z,51.26
2018-09-28T07:22:19.660Z,51.64
2018-09-28T07:23:19.659Z,51.64
2018-09-28T07:24:19.667Z,51.54
2018-09-28T07:25:19.654Z,51.54
2018-09-28T07:26:19.649Z,51.95
2018-09-28T07:27:19.645Z,51.93
2018-09-28T07:28:19.645Z,52.03
2018-09-28T07:29:19.640Z,51.26
2018-09-28T07:30:19.655Z,51.54
2018-09-28T07:31:19.637Z,51.93
2018-09-28T07:32:19.632Z,51.35
2018-09-28T07:33:19.628Z,50.88
2018-09-28T07:34:19.635Z,50.49
2018-09-28T07:35:19.622Z,51.07
2018-09-28T07:36:19.710Z,51.64
2018-09-28T07:37:19.653Z,53.08
2018-09-28T07:38:19.612Z,54.03
2018-09-28T07:39:19.611Z,55.27
2018-09-28T07:40:19.609Z,54.99
2018-09-28T07:41:19.605Z,55.49
2018-09-28T07:42:19.682Z,55.94
2018-09-28T07:43:19.598Z,57.31
2018-09-28T07:44:19.596Z,57.50
2018-09-28T07:45:19.593Z,58.93
2018-09-28T07:46:19.589Z,59.12
2018-09-28T07:47:19.585Z,59.50
2018-09-28T07:48:19.629Z,59.78
2018-09-28T07:49:19.684Z,60.93
2018-09-28T07:50:19.578Z,61.51
2018-09-28T07:51:19.575Z,62.65
2018-09-28T07:52:19.572Z,62.68
2018-09-28T07:53:19.571Z,62.55
2018-09-28T07:54:19.566Z,64.02
2018-09-28T07:55:19.565Z,66.60
2018-09-28T07:56:19.562Z,66.70
2018-09-28T07:57:19.558Z,66.60
2018-09-28T07:58:19.561Z,67.84
2018-09-28T07:59:19.552Z,69.56
2018-09-28T08:00:19.550Z,71.67
2018-09-28T08:01:19.548Z,71.38
2018-09-28T08:02:19.545Z,71.76
2018-09-28T08:03:19.543Z,72.24
2018-09-28T08:04:19.542Z,71.00
2018-09-28T08:05:19.539Z,72.05
2018-09-28T08:06:19.534Z,73.48
2018-09-28T08:07:19.532Z,73.10
2018-09-28T08:08:19.530Z,72.53
2018-09-28T08:09:19.532Z,73.48
2018-09-28T08:10:19.533Z,74.91
2018-09-28T08:11:19.524Z,75.20
2018-09-28T08:12:19.520Z,75.96
2018-09-28T08:13:19.517Z,75.78
2018-09-28T08:14:19.519Z,77.30
2018-09-28T08:15:19.514Z,76.64
2018-09-28T08:16:19.510Z,76.96
2018-09-28T08:17:19.507Z,76.77
2018-09-28T08:18:19.505Z,76.96
2018-09-28T08:19:19.502Z,78.01
2018-09-28T08:20:19.502Z,77.53
2018-09-28T08:21:19.499Z,78.01
2018-09-28T08:22:19.495Z,79.73
2018-09-28T08:23:19.506Z,78.78
2018-09-28T08:24:19.491Z,79.44
2018-09-28T08:25:19.489Z,79.35
2018-09-28T08:26:19.486Z,78.39
2018-09-28T08:27:19.486Z,79.77
2018-09-28T08:28:19.484Z,79.49
2018-09-28T08:29:19.482Z,80.40
2018-09-28T08:30:19.489Z,82.51
2018-09-28T08:31:19.475Z,81.74
2018-09-28T08:32:19.473Z,81.84
2018-09-28T08:33:19.471Z,81.74
2018-09-28T08:34:19.471Z,82.70
2018-09-28T08:35:19.467Z,81.65
2018-09-28T08:36:19.502Z,82.79
2018-09-28T08:37:19.463Z,82.98
2018-09-28T08:38:19.461Z,84.03
2018-09-28T08:39:19.459Z,83.08
2018-09-28T08:40:19.456Z,83.46
2018-09-28T08:41:19.455Z,83.17
2018-09-28T08:42:19.453Z,83.60
2018-09-28T08:43:19.451Z,83.50
2018-09-28T08:44:19.451Z,84.84
2018-09-28T08:45:19.447Z,85.32
2018-09-28T08:46:19.446Z,84.75
2018-09-28T08:47:19.444Z,85.71
2018-09-28T08:48:19.445Z,85.61
2018-09-28T08:49:19.501Z,85.13
2018-09-28T08:50:19.437Z,85.61
2018-09-28T08:51:19.437Z,85.89
2018-09-28T08:52:19.434Z,84.46
2018-09-28T08:53:19.434Z,86.04
2018-09-28T08:54:19.431Z,86.57
2018-09-28T08:55:19.428Z,86.41
2018-09-28T08:56:19.432Z,85.84
2018-09-28T08:57:19.426Z,85.94
2018-09-28T08:58:19.423Z,86.51
2018-09-28T08:59:19.422Z,86.41
2018-09-28T09:00:19.422Z,86.41
2018-09-28T09:01:19.421Z,86.51
2018-09-28T09:02:19.507Z,86.61
2018-09-28T09:03:19.416Z,86.51
2018-09-28T09:04:19.415Z,86.66
2018-09-28T09:05:19.414Z,86.18
2018-09-28T09:06:19.412Z,86.57
2018-09-28T09:07:19.412Z,86.94
2018-09-28T09:08:19.411Z,86.47
2018-09-28T09:09:19.408Z,86.57
2018-09-28T09:10:19.406Z,86.66
2018-09-28T09:11:19.405Z,86.28
2018-09-28T09:12:19.403Z,86.76
2018-09-28T09:13:19.403Z,86.37
2018-09-28T09:14:19.400Z,86.66
2018-09-28T09:15:19.400Z,86.94
2018-09-28T09:16:19.399Z,87.04
2018-09-28T09:17:19.401Z,86.94
2018-09-28T09:18:19.410Z,86.76
2018-09-28T09:19:19.394Z,86.47
2018-09-28T09:20:19.392Z,86.76
2018-09-28T09:21:19.390Z,86.94
2018-09-28T09:22:19.388Z,87.14
2018-09-28T09:23:19.388Z,86.37
2018-09-28T09:24:19.385Z,86.94
2018-09-28T09:25:19.384Z,86.85
2018-09-28T09:26:19.382Z,86.76
2018-09-28T09:27:19.380Z,87.76
2018-09-28T09:28:19.379Z,87.52
2018-09-28T09:29:19.379Z,87.14
2018-09-28T09:30:19.380Z,86.80
2018-09-28T09:31:19.372Z,87.37
2018-09-28T09:32:19.373Z,87.27
2018-09-28T09:33:19.373Z,87.27
2018-09-28T09:34:19.370Z,87.76
2018-09-28T09:35:19.369Z,87.23
2018-09-28T09:36:19.367Z,87.66
2018-09-28T09:37:19.366Z,87.52
2018-09-28T09:38:19.365Z,86.76
2018-09-28T09:39:19.364Z,86.41
2018-09-28T09:40:19.362Z,87.56
2018-09-28T09:41:19.361Z,86.61
2018-09-28T09:42:19.360Z,87.18
2018-09-28T09:43:19.358Z,86.80
2018-09-28T09:44:19.356Z,86.51
2018-09-28T09:45:19.357Z,86.90
2018-09-28T09:46:19.352Z,86.90
2018-09-28T09:47:19.354Z,86.41
2018-09-28T09:48:19.357Z,86.41
2018-09-28T09:49:19.350Z,86.55
2018-09-28T09:50:19.349Z,86.27
2018-09-28T09:51:19.347Z,86.17
2018-09-28T09:52:19.346Z,85.60
2018-09-28T09:53:19.344Z,85.69
2018-09-28T09:54:19.344Z,85.60
2018-09-28T09:55:19.343Z,85.98
2018-09-28T09:56:19.340Z,85.60
2018-09-28T09:57:19.341Z,86.55
2018-09-28T09:58:19.340Z,86.55
2018-09-28T09:59:19.338Z,85.60
2018-09-28T10:00:19.339Z,85.21
2018-09-28T10:01:19.341Z,85.12
2018-09-28T10:02:19.336Z,84.92
2018-09-28T10:03:19.337Z,86.17
2018-09-28T10:04:19.334Z,85.31
2018-09-28T10:05:19.334Z,85.12
2018-09-28T10:06:19.332Z,84.16
2018-09-28T10:07:19.332Z,84.16
2018-09-28T10:08:19.332Z,83.49
2018-09-28T10:09:19.337Z,83.39
2018-09-28T10:10:19.330Z,83.39
2018-09-28T10:11:19.329Z,83.87
2018-09-28T10:12:19.344Z,83.20
2018-09-28T10:13:19.326Z,83.39
2018-09-28T10:14:19.326Z,83.97
2018-09-28T10:15:19.327Z,82.86
2018-09-28T10:16:19.326Z,80.90
2018-09-28T10:17:19.325Z,81.10
2018-09-28T10:18:19.325Z,80.76
2018-09-28T10:19:19.348Z,80.56
2018-09-28T10:20:19.323Z,79.51
2018-09-28T10:21:19.370Z,79.32
2018-09-28T10:22:19.321Z,78.93
2018-09-28T10:23:19.322Z,77.88
2018-09-28T10:24:19.324Z,78.93
2018-09-28T10:25:19.323Z,77.69
2018-09-28T10:26:19.320Z,76.92
2018-09-28T10:27:19.329Z,77.11
2018-09-28T10:28:19.389Z,77.17
2018-09-28T10:29:19.320Z,77.94
2018-09-28T10:30:19.318Z,78.80
2018-09-28T10:31:19.319Z,78.84
2018-09-28T10:32:19.320Z,77.97
2018-09-28T10:33:19.319Z,78.27
2018-09-28T10:34:19.357Z,77.88
2018-09-28T10:35:19.320Z,77.11
2018-09-28T10:36:19.317Z,76.06
2018-09-28T10:37:19.318Z,75.20
2018-09-28T10:38:19.315Z,75.33
2018-09-28T10:39:19.368Z,76.00
2018-09-28T10:40:19.341Z,75.65
2018-09-28T10:41:19.389Z,74.02
2018-09-28T10:42:19.316Z,72.97
2018-09-28T10:43:19.319Z,71.82
2018-09-28T10:44:19.315Z,71.57
2018-09-28T10:45:19.354Z,70.80
2018-09-28T10:46:19.316Z,70.80
2018-09-28T10:47:19.316Z,70.80
2018-09-28T10:48:19.315Z,68.79
2018-09-28T10:49:19.339Z,68.79
2018-09-28T10:50:19.317Z,68.88
2018-09-28T10:51:19.376Z,68.66
2018-09-28T10:52:19.457Z,68.66
2018-09-28T10:53:19.322Z,68.69
2018-09-28T10:54:19.326Z,68.66
2018-09-28T10:55:19.319Z,68.95
2018-09-28T10:56:19.320Z,68.88
2018-09-28T10:57:19.382Z,68.98
2018-09-28T10:58:19.359Z,68.12
2018-09-28T10:59:19.323Z,67.54
2018-09-28T11:00:19.375Z,67.92
2018-09-28T11:01:19.325Z,67.89
2018-09-28T11:02:19.324Z,68.46
2018-09-28T11:03:19.355Z,69.17
2018-09-28T11:04:19.382Z,69.36
2018-09-28T11:05:19.329Z,68.18
2018-09-28T11:06:19.329Z,69.07
2018-09-28T11:07:19.337Z,69.74
2018-09-28T11:08:19.364Z,69.17
2018-09-28T11:09:19.338Z,68.98
2018-09-28T11:10:19.383Z,69.36
2018-09-28T11:11:19.335Z,67.63
2018-09-28T11:12:19.335Z,66.96
2018-09-28T11:13:19.336Z,68.02
2018-09-28T11:14:19.337Z,67.57
2018-09-28T11:15:19.392Z,68.05
2018-09-28T11:16:19.339Z,67.00
2018-09-28T11:17:19.342Z,66.03
2018-09-28T11:18:19.342Z,66.26
2018-09-28T11:19:19.343Z,65.49
2018-09-28T11:20:19.345Z,65.59
2018-09-28T11:21:19.455Z,65.84
2018-09-28T11:22:19.348Z,65.65
2018-09-28T11:23:19.348Z,66.39
2018-09-28T11:24:19.350Z,68.21
2018-09-28T11:25:19.352Z,67.99
2018-09-28T11:26:19.360Z,69.04
2018-09-28T11:27:19.378Z,70.06
2018-09-28T11:28:19.357Z,71.69
2018-09-28T11:29:19.358Z,72.45
2018-09-28T11:30:19.358Z,72.36
2018-09-28T11:31:19.361Z,72.36
2018-09-28T11:32:19.364Z,72.55
2018-09-28T11:33:19.431Z,72.84
2018-09-28T11:34:19.363Z,73.80
2018-09-28T11:35:19.367Z,73.03
2018-09-28T11:36:19.366Z,72.74
2018-09-28T11:37:19.368Z,73.41
2018-09-28T11:38:19.368Z,72.84
2018-09-28T11:39:19.409Z,72.84
2018-09-28T11:40:19.369Z,73.22
2018-09-28T11:41:19.374Z,72.55
2018-09-28T11:42:19.370Z,72.94
2018-09-28T11:43:19.399Z,72.71
2018-09-28T11:44:19.374Z,72.90
2018-09-28T11:45:19.435Z,72.80
2018-09-28T11:46:19.375Z,72.13
2018-09-28T11:47:19.375Z,71.94
2018-09-28T11:48:19.375Z,71.75
2018-09-28T11:49:19.379Z,70.79
2018-09-28T11:50:19.374Z,69.87
2018-09-28T11:51:19.402Z,68.97
2018-09-28T11:52:19.385Z,68.14
2018-09-28T11:53:19.377Z,67.18
2018-09-28T11:54:19.376Z,65.46
2018-09-28T11:55:19.377Z,64.31
2018-09-28T11:56:19.378Z,63.06
2018-09-28T11:57:19.384Z,62.20
2018-09-28T11:58:19.378Z,61.56
2018-09-28T11:59:19.379Z,62.13
2018-09-28T12:00:19.378Z,61.94
2018-09-28T12:01:19.380Z,61.18
2018-09-28T12:02:19.381Z,61.18
2018-09-28T12:03:19.398Z,61.37
2018-09-28T12:04:19.379Z,61.75
2018-09-28T12:05:19.381Z,61.66
2018-09-28T12:06:19.455Z,60.99
2018-09-28T12:07:19.381Z,61.37
2018-09-28T12:08:19.381Z,61.56
2018-09-28T12:09:19.447Z,61.56
2018-09-28T12:10:19.382Z,61.75
2018-09-28T12:11:19.383Z,61.75
2018-09-28T12:12:19.402Z,61.46
2018-09-28T12:13:19.416Z,62.62
2018-09-28T12:14:19.382Z,62.23
2018-09-28T12:15:19.428Z,63.29
2018-09-28T12:16:19.383Z,63.57
2018-09-28T12:17:19.385Z,63.57
2018-09-28T12:18:19.447Z,64.05
2018-09-28T12:19:19.383Z,64.34
2018-09-28T12:20:19.384Z,64.15
2018-09-28T12:21:19.405Z,63.76
2018-09-28T12:22:19.385Z,64.05
2018-09-28T12:23:19.385Z,63.00
2018-09-28T12:24:19.406Z,63.09
2018-09-28T12:25:19.386Z,63.76
2018-09-28T12:26:19.383Z,63.76
2018-09-28T12:27:19.406Z,64.05
2018-09-28T12:28:19.389Z,63.09
2018-09-28T12:29:19.385Z,63.09
2018-09-28T12:30:19.404Z,64.15
2018-09-28T12:31:19.386Z,62.33
2018-09-28T12:32:19.387Z,61.46
2018-09-28T12:33:19.448Z,62.23
2018-09-28T12:34:19.384Z,63.38
2018-09-28T12:35:19.387Z,62.42
2018-09-28T12:36:19.425Z,62.20
2018-09-28T12:37:19.388Z,62.87
2018-09-28T12:38:19.389Z,63.00
2018-09-28T12:39:19.465Z,61.94
2018-09-28T12:40:19.387Z,59.80
2018-09-28T12:41:19.384Z,59.80
2018-09-28T12:42:19.432Z,59.80
2018-09-28T12:43:19.386Z,60.70
2018-09-28T12:44:19.390Z,60.22
2018-09-28T12:45:19.433Z,59.83
2018-09-28T12:46:19.386Z,59.45
2018-09-28T12:47:19.386Z,59.55
2018-09-28T12:48:19.439Z,59.64
2018-09-28T12:49:19.385Z,59.74
2018-09-28T12:50:19.402Z,60.12
2018-09-28T12:51:19.384Z,59.64
2018-09-28T12:52:19.386Z,59.45